createdAt,value
2019-06-27T00:00:19.823Z,95700.09
2019-06-27T00:02:49.308Z,95697.20
2019-06-27T00:05:18.878Z,95706.12
2019-06-27T00:07:48.382Z,95708.97
2019-06-27T00:10:18.489Z,95697.63
2019-06-27T00:12:47.984Z,95697.73
2019-06-27T00:15:17.485Z,95691.90
2019-06-27T00:17:47.052Z,95694.37
2019-06-27T00:20:16.601Z,95690.38
2019-06-27T00:22:46.449Z,95687.70
2019-06-27T00:25:16.050Z,95688.63
2019-06-27T00:27:45.584Z,95687.70
2019-06-27T00:30:15.427Z,95676.46
2019-06-27T00:32:44.918Z,95681.95
2019-06-27T00:35:14.467Z,95689.19
2019-06-27T00:37:43.973Z,95683.05
2019-06-27T00:40:13.643Z,95682.45
2019-06-27T00:42:43.143Z,95679.17
2019-06-27T00:45:13.257Z,95679.98
2019-06-27T00:47:42.763Z,95683.62
2019-06-27T00:50:12.886Z,95681.48
2019-06-27T00:52:42.377Z,95672.98
2019-06-27T00:55:12.386Z,95677.61
2019-06-27T00:57:41.886Z,95674.20
2019-06-27T01:00:12.838Z,95667.36
2019-06-27T01:02:42.335Z,95664.03
2019-06-27T01:05:12.238Z,95665.95
2019-06-27T01:07:41.674Z,95667.64
2019-06-27T01:10:12.610Z,95663.13
2019-06-27T01:12:42.094Z,95664.56
2019-06-27T01:15:12.237Z,95666.42
2019-06-27T01:17:41.738Z,95664.48
2019-06-27T01:20:11.762Z,95660.69
2019-06-27T01:22:41.329Z,95668.11
2019-06-27T01:25:11.568Z,95658.42
2019-06-27T01:27:41.084Z,95666.67
2019-06-27T01:30:11.079Z,95661.11
2019-06-27T01:32:40.581Z,95662.69
2019-06-27T01:35:10.818Z,95661.94
2019-06-27T01:37:40.578Z,95664.41
2019-06-27T01:40:10.522Z,95660.61
2019-06-27T01:42:40.061Z,95665.59
2019-06-27T01:45:26.602Z,95669.42
2019-06-27T01:47:56.110Z,95665.12
2019-06-27T01:50:25.612Z,95661.03
2019-06-27T01:52:55.097Z,95660.81
2019-06-27T01:55:24.658Z,95663.05
2019-06-27T01:57:54.164Z,95653.76
2019-06-27T02:00:24.357Z,95661.62
2019-06-27T02:02:53.862Z,95663.83
2019-06-27T02:05:23.347Z,95659.81
2019-06-27T02:07:52.838Z,95668.48
2019-06-27T02:10:22.476Z,95670.48
2019-06-27T02:12:52.042Z,95667.00
2019-06-27T02:15:22.512Z,95663.69
2019-06-27T02:17:52.035Z,95672.33
2019-06-27T02:20:21.938Z,95669.45
2019-06-27T02:22:51.424Z,95671.09
2019-06-27T02:25:22.329Z,95665.45
2019-06-27T02:28:03.306Z,95655.23
2019-06-27T02:30:27.711Z,95659.09
2019-06-27T02:32:57.215Z,95655.81
2019-06-27T02:35:26.712Z,95658.93
2019-06-27T02:37:56.211Z,95664.64
2019-06-27T02:40:25.704Z,95665.42
2019-06-27T02:42:55.286Z,95654.98
2019-06-27T02:45:24.861Z,95654.19
2019-06-27T02:47:54.372Z,95656.96
2019-06-27T02:50:23.855Z,95656.27
2019-06-27T02:52:53.353Z,95662.72
2019-06-27T02:55:22.854Z,95656.58
2019-06-27T02:57:52.426Z,95661.23
2019-06-27T03:00:22.047Z,95661.76
2019-06-27T03:02:51.558Z,95658.96
2019-06-27T03:05:21.226Z,95660.67
2019-06-27T03:07:50.730Z,95667.67
2019-06-27T03:10:20.455Z,95665.88
2019-06-27T03:12:49.950Z,95667.38
2019-06-27T03:15:19.581Z,95662.66
2019-06-27T03:17:49.097Z,95670.99
2019-06-27T03:20:18.627Z,95667.02
2019-06-27T03:22:48.121Z,95668.34
2019-06-27T03:25:17.692Z,95675.47
2019-06-27T03:27:47.184Z,95674.97
2019-06-27T03:30:16.819Z,95672.91
2019-06-27T03:32:46.321Z,95676.67
2019-06-27T03:35:15.901Z,95682.16
2019-06-27T03:37:45.457Z,95679.30
2019-06-27T03:40:15.307Z,95677.27
2019-06-27T03:42:44.801Z,95680.87
2019-06-27T03:45:16.121Z,95687.78
2019-06-27T03:47:46.451Z,95688.55
2019-06-27T03:50:16.831Z,95685.56
2019-06-27T03:52:46.327Z,95690.66
2019-06-27T03:55:15.802Z,95688.05
2019-06-27T03:57:45.736Z,95691.26
2019-06-27T04:00:22.530Z,95691.25
2019-06-27T04:02:52.077Z,95691.87
2019-06-27T04:05:21.580Z,95696.06
2019-06-27T04:07:51.088Z,95683.81
2019-06-27T04:10:20.586Z,95683.31
2019-06-27T04:12:50.096Z,95683.10
2019-06-27T04:15:19.621Z,95678.19
2019-06-27T04:17:49.099Z,95685.22
2019-06-27T04:20:18.673Z,95688.16
2019-06-27T04:22:48.220Z,95676.59
2019-06-27T04:25:17.709Z,95672.55
2019-06-27T04:27:47.210Z,95669.30
2019-06-27T04:30:17.328Z,95681.10
2019-06-27T04:32:46.801Z,95684.60
2019-06-27T04:35:16.379Z,95681.52
2019-06-27T04:37:45.871Z,95679.41
2019-06-27T04:40:15.517Z,95673.80
2019-06-27T04:42:44.987Z,95675.83
2019-06-27T04:45:14.653Z,95682.58
2019-06-27T04:47:44.214Z,95684.74
2019-06-27T04:50:13.717Z,95678.85
2019-06-27T04:52:43.214Z,95687.35
2019-06-27T04:55:12.716Z,95684.91
2019-06-27T04:57:42.209Z,95680.56
2019-06-27T05:00:15.007Z,95678.19
2019-06-27T05:02:44.491Z,95679.16
2019-06-27T05:05:14.068Z,95671.12
2019-06-27T05:07:43.564Z,95669.97
2019-06-27T05:10:13.084Z,95665.08
2019-06-27T05:12:42.548Z,95659.16
2019-06-27T05:15:12.485Z,95658.39
2019-06-27T05:17:41.997Z,95652.23
2019-06-27T05:20:12.442Z,95654.33
2019-06-27T05:22:41.932Z,95658.07
2019-06-27T05:25:11.435Z,95660.31
2019-06-27T05:27:40.927Z,95656.53
2019-06-27T05:30:10.793Z,95646.98
2019-06-27T05:32:40.327Z,95646.42
2019-06-27T05:35:09.946Z,95645.39
2019-06-27T05:37:39.444Z,95650.52
2019-06-27T05:40:09.380Z,95647.28
2019-06-27T05:42:38.867Z,95638.34
2019-06-27T05:45:08.995Z,95638.38
2019-06-27T05:47:38.655Z,95634.12
2019-06-27T05:50:08.733Z,95641.23
2019-06-27T05:52:38.227Z,95634.92
2019-06-27T05:55:07.794Z,95638.23
2019-06-27T05:57:37.280Z,95637.82
2019-06-27T06:00:26.189Z,95632.52
2019-06-27T06:02:39.737Z,95634.93
2019-06-27T06:05:09.329Z,95644.91
2019-06-27T06:07:38.820Z,95643.83
2019-06-27T06:10:08.702Z,95648.50
2019-06-27T06:12:38.196Z,95649.42
2019-06-27T06:15:08.035Z,95651.05
2019-06-27T06:17:37.507Z,95653.44
2019-06-27T06:20:10.536Z,95654.17
2019-06-27T06:22:40.038Z,95652.98
2019-06-27T06:25:09.654Z,95659.52
2019-06-27T06:27:39.146Z,95653.70
2019-06-27T06:30:09.752Z,95649.48
2019-06-27T06:32:39.240Z,95654.44
2019-06-27T06:35:08.881Z,95653.57
2019-06-27T06:37:38.382Z,95651.52
2019-06-27T06:40:08.196Z,95647.48
2019-06-27T06:42:37.702Z,95644.59
2019-06-27T06:45:07.682Z,95637.39
2019-06-27T06:47:37.178Z,95637.77
2019-06-27T06:50:09.773Z,95635.71
2019-06-27T06:52:39.471Z,95640.13
2019-06-27T06:55:09.014Z,95638.03
2019-06-27T06:57:38.490Z,95639.55
2019-06-27T07:00:10.190Z,95629.46
2019-06-27T07:02:40.000Z,95632.17
2019-06-27T07:05:10.032Z,95633.45
2019-06-27T07:07:39.523Z,95627.75
2019-06-27T07:10:10.434Z,95627.03
2019-06-27T07:12:40.176Z,95626.57
2019-06-27T07:15:09.782Z,95628.25
2019-06-27T07:17:39.277Z,95625.64
2019-06-27T07:20:09.402Z,95623.88
2019-06-27T07:22:38.885Z,95617.85
2019-06-27T07:25:08.441Z,95617.45
2019-06-27T07:27:38.208Z,95607.80
2019-06-27T07:30:08.219Z,95601.73
2019-06-27T07:32:37.874Z,95604.59
2019-06-27T07:35:08.185Z,95605.20
2019-06-27T07:37:37.662Z,95604.38
2019-06-27T07:40:08.611Z,95606.20
2019-06-27T07:42:38.159Z,95602.60
2019-06-27T07:45:09.271Z,95606.02
2019-06-27T07:47:38.812Z,95601.03
2019-06-27T07:50:10.021Z,95600.06
2019-06-27T07:52:39.520Z,95601.59
2019-06-27T07:55:09.412Z,95593.92
2019-06-27T07:57:38.880Z,95598.80
2019-06-27T08:00:10.294Z,95598.39
2019-06-27T08:02:39.779Z,95603.94
2019-06-27T08:05:11.197Z,95599.97
2019-06-27T08:07:40.852Z,95598.08
2019-06-27T08:10:10.761Z,95603.46
2019-06-27T08:12:42.515Z,95600.73
2019-06-27T08:15:11.711Z,95605.78
2019-06-27T08:17:41.267Z,95601.80
2019-06-27T08:20:10.987Z,95607.85
2019-06-27T08:22:40.480Z,95609.67
2019-06-27T08:25:10.575Z,95607.73
2019-06-27T08:27:40.069Z,95609.36
2019-06-27T08:30:10.085Z,95604.97
2019-06-27T08:32:39.626Z,95602.73
2019-06-27T08:35:10.350Z,95606.38
2019-06-27T08:37:39.832Z,95608.76
2019-06-27T08:40:10.137Z,95602.59
2019-06-27T08:42:39.618Z,95602.19
2019-06-27T08:45:09.727Z,95597.98
2019-06-27T08:47:39.237Z,95598.17
2019-06-27T08:50:09.919Z,95597.59
2019-06-27T08:52:39.415Z,95601.70
2019-06-27T08:55:09.502Z,95601.98
2019-06-27T08:57:39.014Z,95601.38
2019-06-27T09:00:10.645Z,95605.48
2019-06-27T09:02:40.153Z,95605.31
2019-06-27T09:05:09.862Z,95610.89
2019-06-27T09:07:39.392Z,95603.09
2019-06-27T09:10:10.395Z,95611.39
2019-06-27T09:12:39.949Z,95608.84
2019-06-27T09:15:10.144Z,95613.32
2019-06-27T09:17:39.995Z,95614.72
2019-06-27T09:20:10.479Z,95610.46
2019-06-27T09:22:39.998Z,95617.10
2019-06-27T09:25:10.295Z,95616.73
2019-06-27T09:27:39.838Z,95621.16
2019-06-27T09:30:12.551Z,95622.95
2019-06-27T09:32:42.097Z,95613.46
2019-06-27T09:35:11.822Z,95622.08
2019-06-27T09:37:41.298Z,95620.89
2019-06-27T09:40:11.223Z,95623.71
2019-06-27T09:42:40.721Z,95622.41
2019-06-27T09:45:10.547Z,95613.45
2019-06-27T09:47:40.066Z,95620.20
2019-06-27T09:50:11.456Z,95624.23
2019-06-27T09:52:41.022Z,95620.92
2019-06-27T09:55:12.343Z,95616.88
2019-06-27T09:57:41.848Z,95622.28
2019-06-27T10:00:12.504Z,95615.70
2019-06-27T10:02:42.857Z,95617.59
2019-06-27T10:05:13.361Z,95614.16
2019-06-27T10:07:43.381Z,95617.05
2019-06-27T10:10:13.211Z,95617.13
2019-06-27T10:12:43.434Z,95613.49
2019-06-27T10:15:13.443Z,95615.52
2019-06-27T10:17:42.907Z,95609.47
2019-06-27T10:20:12.743Z,95611.95
2019-06-27T10:22:42.237Z,95615.25
2019-06-27T10:25:12.048Z,95610.28
2019-06-27T10:27:41.539Z,95608.78
2019-06-27T10:30:12.030Z,95606.45
2019-06-27T10:32:54.398Z,95607.39
2019-06-27T10:35:12.808Z,95614.67
2019-06-27T10:37:42.293Z,95607.12
2019-06-27T10:40:12.675Z,95604.11
2019-06-27T10:42:42.358Z,95607.03
2019-06-27T10:45:12.115Z,95605.95
2019-06-27T10:47:41.598Z,95608.22
2019-06-27T10:50:11.750Z,95608.52
2019-06-27T10:52:41.220Z,95606.73
2019-06-27T10:55:10.853Z,95610.66
2019-06-27T10:57:40.357Z,95605.27
2019-06-27T11:00:10.820Z,95603.08
2019-06-27T11:02:40.394Z,95601.86
2019-06-27T11:05:11.082Z,95599.68
2019-06-27T11:07:41.246Z,95600.62
2019-06-27T11:10:11.069Z,95602.50
2019-06-27T11:12:40.540Z,95596.16
2019-06-27T11:15:11.879Z,95596.13
2019-06-27T11:17:41.376Z,95594.27
2019-06-27T11:20:14.819Z,95594.55
2019-06-27T11:22:42.341Z,95589.63
2019-06-27T11:25:11.986Z,95590.60
2019-06-27T11:27:41.492Z,95585.34
2019-06-27T11:30:11.690Z,95586.41
2019-06-27T11:32:41.172Z,95584.02
2019-06-27T11:35:10.920Z,95585.87
2019-06-27T11:37:40.549Z,95578.44
2019-06-27T11:40:12.342Z,95567.23
2019-06-27T11:42:42.244Z,95568.27
2019-06-27T11:45:12.097Z,95558.31
2019-06-27T11:47:41.569Z,95563.67
2019-06-27T11:50:11.178Z,95564.50
2019-06-27T11:52:40.712Z,95565.46
2019-06-27T11:55:10.433Z,95565.27
2019-06-27T11:57:39.913Z,95557.27
2019-06-27T12:00:09.659Z,95568.53
2019-06-27T12:02:39.220Z,95561.97
2019-06-27T12:05:08.959Z,95554.69
2019-06-27T12:07:38.468Z,95565.87
2019-06-27T12:10:09.454Z,95560.21
2019-06-27T12:12:39.013Z,95565.70
2019-06-27T12:15:09.713Z,95558.09
2019-06-27T12:17:39.397Z,95550.36
2019-06-27T12:20:10.352Z,95557.03
2019-06-27T12:22:39.823Z,95558.14
2019-06-27T12:25:09.818Z,95552.17
2019-06-27T12:27:39.298Z,95553.56
2019-06-27T12:30:09.144Z,95554.59
2019-06-27T12:32:50.913Z,95549.00
2019-06-27T12:35:10.153Z,95550.84
2019-06-27T12:37:40.096Z,95550.73
2019-06-27T12:40:11.446Z,95552.13
2019-06-27T12:42:40.995Z,95549.79
2019-06-27T12:45:10.847Z,95550.87
2019-06-27T12:47:40.338Z,95551.20
2019-06-27T12:50:10.280Z,95543.91
2019-06-27T12:52:39.779Z,95535.56
2019-06-27T12:55:09.426Z,95533.78
2019-06-27T12:57:38.991Z,95531.20
2019-06-27T13:00:09.581Z,95530.27
2019-06-27T13:02:39.146Z,95533.09
2019-06-27T13:05:08.827Z,95525.52
2019-06-27T13:07:38.328Z,95524.16
2019-06-27T13:10:08.366Z,95530.12
2019-06-27T13:12:37.849Z,95533.50
2019-06-27T13:15:07.921Z,95526.36
2019-06-27T13:17:37.357Z,95526.06
2019-06-27T13:20:07.865Z,95518.95
2019-06-27T13:22:37.447Z,95515.76
2019-06-27T13:25:07.178Z,95518.14
2019-06-27T13:27:36.680Z,95518.96
2019-06-27T13:30:09.317Z,95513.09
2019-06-27T13:32:38.808Z,95514.87
2019-06-27T13:35:08.358Z,95511.77
2019-06-27T13:37:37.875Z,95506.86
2019-06-27T13:40:08.165Z,95512.94
2019-06-27T13:42:38.599Z,95506.20
2019-06-27T13:45:08.821Z,95507.30
2019-06-27T13:47:38.336Z,95511.45
2019-06-27T13:50:08.407Z,95505.62
2019-06-27T13:52:37.906Z,95506.72
2019-06-27T13:55:07.899Z,95501.34
2019-06-27T13:57:37.419Z,95495.55
2019-06-27T14:00:09.793Z,95497.80
2019-06-27T14:02:39.282Z,95493.34
2019-06-27T14:05:09.097Z,95484.57
2019-06-27T14:07:38.580Z,95485.99
2019-06-27T14:10:09.857Z,95492.47
2019-06-27T14:12:39.327Z,95482.23
2019-06-27T14:15:09.755Z,95474.01
2019-06-27T14:17:39.290Z,95484.36
2019-06-27T14:20:09.798Z,95473.28
2019-06-27T14:22:39.240Z,95477.70
2019-06-27T14:25:08.969Z,95472.91
2019-06-27T14:27:38.469Z,95474.60
2019-06-27T14:30:09.622Z,95470.62
2019-06-27T14:32:39.110Z,95465.19
2019-06-27T14:35:15.896Z,95465.86
2019-06-27T14:37:40.050Z,95459.01
2019-06-27T14:40:10.657Z,95464.95
2019-06-27T14:42:40.116Z,95456.16
2019-06-27T14:45:09.844Z,95458.83
2019-06-27T14:47:39.383Z,95455.40
2019-06-27T14:50:09.609Z,95460.34
2019-06-27T14:52:39.075Z,95447.66
2019-06-27T14:55:09.175Z,95451.59
2019-06-27T14:57:38.859Z,95450.57
2019-06-27T15:00:12.988Z,95442.06
2019-06-27T15:02:42.498Z,95447.20
2019-06-27T15:05:12.783Z,95452.98
2019-06-27T15:07:42.267Z,95452.44
2019-06-27T15:10:12.063Z,95447.39
2019-06-27T15:12:55.914Z,95447.34
2019-06-27T15:15:13.070Z,95442.02
2019-06-27T15:17:42.539Z,95445.73
2019-06-27T15:20:12.327Z,95443.81
2019-06-27T15:22:41.835Z,95433.94
2019-06-27T15:25:11.763Z,95443.06
2019-06-27T15:27:41.247Z,95443.97
2019-06-27T15:30:11.239Z,95436.63
2019-06-27T15:32:40.725Z,95428.46
2019-06-27T15:35:10.775Z,95431.44
2019-06-27T15:37:40.257Z,95435.21
2019-06-27T15:40:11.199Z,95432.38
2019-06-27T15:42:40.696Z,95440.91
2019-06-27T15:45:11.032Z,95432.38
2019-06-27T15:47:40.591Z,95425.38
2019-06-27T15:50:10.439Z,95432.22
2019-06-27T15:52:39.940Z,95431.44
2019-06-27T15:55:12.187Z,95433.84
2019-06-27T15:57:41.590Z,95426.98
2019-06-27T16:00:12.891Z,95425.58
2019-06-27T16:02:42.690Z,95421.98
2019-06-27T16:05:12.529Z,95416.56
2019-06-27T16:07:42.048Z,95411.78
2019-06-27T16:10:11.985Z,95421.88
2019-06-27T16:12:41.481Z,95419.38
2019-06-27T16:15:11.200Z,95419.84
2019-06-27T16:17:40.690Z,95421.03
2019-06-27T16:20:10.995Z,95413.43
2019-06-27T16:22:40.489Z,95415.55
2019-06-27T16:25:10.060Z,95417.46
2019-06-27T16:27:39.545Z,95413.98
2019-06-27T16:30:09.580Z,95411.28
2019-06-27T16:32:39.109Z,95415.84
2019-06-27T16:35:09.005Z,95414.48
2019-06-27T16:37:38.523Z,95412.53
2019-06-27T16:40:09.461Z,95414.30
2019-06-27T16:42:38.960Z,95412.58
2019-06-27T16:45:09.454Z,95407.19
2019-06-27T16:47:38.963Z,95412.56
2019-06-27T16:50:09.648Z,95415.97
2019-06-27T16:52:39.154Z,95416.02
2019-06-27T16:55:08.711Z,95410.55
2019-06-27T16:57:38.211Z,95428.17
2019-06-27T17:00:08.036Z,95421.05
2019-06-27T17:02:37.509Z,95417.23
2019-06-27T17:05:08.541Z,95411.40
2019-06-27T17:07:38.399Z,95419.19
2019-06-27T17:10:09.711Z,95420.37
2019-06-27T17:12:39.203Z,95423.15
2019-06-27T17:15:09.995Z,95424.56
2019-06-27T17:17:39.562Z,95421.62
2019-06-27T17:20:10.328Z,95416.56
2019-06-27T17:22:39.837Z,95417.73
2019-06-27T17:25:09.665Z,95422.91
2019-06-27T17:27:39.237Z,95419.22
2019-06-27T17:30:11.214Z,95424.91
2019-06-27T17:32:40.711Z,95417.11
2019-06-27T17:35:10.837Z,95419.48
2019-06-27T17:37:40.323Z,95424.09
2019-06-27T17:40:10.550Z,95422.55
2019-06-27T17:42:40.014Z,95421.80
2019-06-27T17:45:09.838Z,95425.64
2019-06-27T17:47:39.422Z,95425.95
2019-06-27T17:50:09.051Z,95424.98
2019-06-27T17:52:38.525Z,95428.27
2019-06-27T17:55:09.132Z,95433.73
2019-06-27T17:57:38.635Z,95428.08
2019-06-27T18:00:08.625Z,95429.16
2019-06-27T18:02:38.126Z,95434.41
2019-06-27T18:05:07.841Z,95434.16
2019-06-27T18:07:37.343Z,95439.08
2019-06-27T18:10:07.243Z,95429.38
2019-06-27T18:12:36.796Z,95432.64
2019-06-27T18:15:08.570Z,95434.58
2019-06-27T18:17:38.076Z,95444.30
2019-06-27T18:20:10.670Z,95442.72
2019-06-27T18:22:40.194Z,95446.52
2019-06-27T18:25:09.737Z,95446.02
2019-06-27T18:27:39.298Z,95447.38
2019-06-27T18:30:09.239Z,95447.67
2019-06-27T18:32:38.741Z,95452.78
2019-06-27T18:35:08.648Z,95453.05
2019-06-27T18:37:38.141Z,95456.30
2019-06-27T18:40:08.864Z,95457.37
2019-06-27T18:42:38.344Z,95458.11
2019-06-27T18:45:08.275Z,95462.41
2019-06-27T18:47:37.744Z,95471.27
2019-06-27T18:50:08.439Z,95467.98
2019-06-27T18:52:37.930Z,95466.09
2019-06-27T18:55:07.840Z,95472.80
2019-06-27T18:57:37.338Z,95474.13
2019-06-27T19:00:09.000Z,95470.82
2019-06-27T19:02:38.491Z,95475.65
2019-06-27T19:05:08.132Z,95473.09
2019-06-27T19:07:45.630Z,95475.70
2019-06-27T19:10:10.366Z,95483.73
2019-06-27T19:12:39.897Z,95488.77
2019-06-27T19:15:11.057Z,95496.78
2019-06-27T19:17:40.687Z,95503.44
2019-06-27T19:20:25.108Z,95505.21
2019-06-27T19:23:12.251Z,95505.98
2019-06-27T19:25:43.383Z,95512.39
2019-06-27T19:28:12.865Z,95518.51
2019-06-27T19:30:42.515Z,95526.64
2019-06-27T19:33:12.019Z,95528.66
2019-06-27T19:35:41.518Z,95534.16
2019-06-27T19:38:11.006Z,95539.42
2019-06-27T19:40:40.492Z,95541.53
2019-06-27T19:43:23.424Z,95551.06
2019-06-27T19:45:41.346Z,95552.27
2019-06-27T19:48:10.834Z,95557.41
2019-06-27T19:50:40.325Z,95557.98
2019-06-27T19:53:09.814Z,95562.34
2019-06-27T19:55:39.307Z,95565.30
2019-06-27T19:58:08.870Z,95559.30
2019-06-27T20:00:38.503Z,95563.59
2019-06-27T20:03:07.984Z,95563.25
2019-06-27T20:05:37.478Z,95570.43
2019-06-27T20:08:18.616Z,95571.83
2019-06-27T20:10:38.178Z,95568.23
2019-06-27T20:13:08.473Z,95568.56
2019-06-27T20:15:37.962Z,95577.41
2019-06-27T20:18:07.584Z,95578.47
2019-06-27T20:20:37.075Z,95574.08
2019-06-27T20:23:06.559Z,95577.44
2019-06-27T20:25:36.088Z,95585.93
2019-06-27T20:28:05.583Z,95579.94
2019-06-27T20:30:35.089Z,95588.13
2019-06-27T20:33:04.586Z,95585.64
2019-06-27T20:35:34.066Z,95580.98
2019-06-27T20:38:03.547Z,95584.10
2019-06-27T20:40:33.046Z,95578.52
2019-06-27T20:43:02.521Z,95581.29
2019-06-27T20:45:32.011Z,95581.64
2019-06-27T20:48:01.565Z,95584.66
2019-06-27T20:50:31.010Z,95586.58
2019-06-27T20:53:00.496Z,95585.30
2019-06-27T20:55:29.994Z,95593.58
2019-06-27T20:57:59.472Z,95590.91
2019-06-27T21:00:29.040Z,95596.48
2019-06-27T21:02:58.528Z,95596.80
2019-06-27T21:05:28.009Z,95597.88
2019-06-27T21:07:57.503Z,95598.03
2019-06-27T21:10:27.050Z,95600.14
2019-06-27T21:12:56.544Z,95597.45
2019-06-27T21:15:26.175Z,95601.84
2019-06-27T21:17:55.747Z,95603.66
2019-06-27T21:20:25.305Z,95609.53
2019-06-27T21:22:54.796Z,95609.77
2019-06-27T21:25:24.281Z,95610.21
2019-06-27T21:27:53.775Z,95610.43
2019-06-27T21:30:23.461Z,95611.32
2019-06-27T21:32:52.960Z,95608.19
2019-06-27T21:35:22.511Z,95612.98
2019-06-27T21:37:52.004Z,95610.03
2019-06-27T21:40:22.297Z,95619.57
2019-06-27T21:42:52.265Z,95613.59
2019-06-27T21:45:21.873Z,95620.02
2019-06-27T21:47:51.375Z,95614.00
2019-06-27T21:50:21.223Z,95621.91
2019-06-27T21:52:50.702Z,95623.41
2019-06-27T21:55:20.191Z,95630.33
2019-06-27T21:57:49.688Z,95629.75
2019-06-27T22:00:19.701Z,95628.23
2019-06-27T22:02:49.209Z,95629.59
2019-06-27T22:05:18.943Z,95624.67
2019-06-27T22:07:48.431Z,95633.13
2019-06-27T22:10:18.922Z,95637.20
2019-06-27T22:12:48.416Z,95640.78
2019-06-27T22:15:19.211Z,95639.03
2019-06-27T22:17:48.676Z,95638.04
2019-06-27T22:20:19.484Z,95639.95
2019-06-27T22:22:48.959Z,95634.79
2019-06-27T22:25:18.692Z,95636.36
2019-06-27T22:27:48.249Z,95637.10
2019-06-27T22:30:19.097Z,95643.02
2019-06-27T22:32:48.572Z,95633.44
2019-06-27T22:35:18.200Z,95622.21
2019-06-27T22:38:04.917Z,95637.30
2019-06-27T22:40:52.139Z,95625.79
2019-06-27T22:43:39.333Z,95630.14
2019-06-27T22:46:25.989Z,95621.23
2019-06-27T22:48:54.701Z,95623.00
2019-06-27T22:51:34.755Z,95626.34
2019-06-27T22:54:05.970Z,95622.12
2019-06-27T22:56:35.456Z,95617.38
2019-06-27T22:59:04.936Z,95616.90
2019-06-27T23:01:34.499Z,95614.38
2019-06-27T23:04:03.986Z,95609.70
2019-06-27T23:06:33.482Z,95608.53
2019-06-27T23:09:03.404Z,95615.11
2019-06-27T23:11:32.915Z,95616.56
2019-06-27T23:14:02.383Z,95619.47
2019-06-27T23:16:31.888Z,95618.96
2019-06-27T23:19:01.366Z,95613.88
2019-06-27T23:21:30.854Z,95612.14
2019-06-27T23:24:00.364Z,95611.80
2019-06-27T23:26:29.853Z,95607.69
2019-06-27T23:28:59.339Z,95606.98
2019-06-27T23:31:28.818Z,95610.50
2019-06-27T23:33:58.328Z,95606.73
2019-06-27T23:36:27.880Z,95602.64
2019-06-27T23:38:57.372Z,95597.83
2019-06-27T23:41:26.852Z,95597.20
2019-06-27T23:43:56.353Z,95598.36
2019-06-27T23:46:42.611Z,95602.55
2019-06-27T23:49:12.730Z,95599.77
2019-06-27T23:51:42.291Z,95596.16
2019-06-27T23:54:11.845Z,95602.97
2019-06-27T23:56:41.335Z,95601.20
2019-06-27T23:59:10.827Z,95603.20
